createdAt,value
2023-01-09T00:00:59.875Z,2.95
2023-01-09T00:03:31.857Z,2.78
2023-01-09T00:06:03.944Z,2.81
2023-01-09T00:08:35.963Z,2.69
2023-01-09T00:11:08.513Z,2.94
2023-01-09T00:13:40.535Z,2.84
2023-01-09T00:16:12.513Z,2.78
2023-01-09T00:18:44.749Z,2.94
2023-01-09T00:21:17.309Z,2.86
2023-01-09T00:23:49.634Z,2.87
2023-01-09T00:26:22.089Z,2.90
2023-01-09T00:28:54.562Z,2.89
2023-01-09T00:31:26.517Z,2.78
2023-01-09T00:33:58.461Z,2.88
2023-01-09T00:36:30.433Z,2.84
2023-01-09T00:39:02.515Z,2.92
2023-01-09T00:41:46.923Z,2.92
2023-01-09T00:44:23.901Z,2.87
2023-01-09T00:47:03.195Z,2.62
2023-01-09T00:49:37.114Z,2.90
2023-01-09T00:52:11.361Z,2.91
2023-01-09T00:54:44.050Z,2.89
2023-01-09T00:57:16.245Z,2.70
2023-01-09T00:59:48.225Z,2.70
2023-01-09T01:02:20.533Z,2.79
2023-01-09T01:05:11.182Z,2.69
2023-01-09T01:07:43.579Z,2.78
2023-01-09T01:10:20.557Z,2.88
2023-01-09T01:12:53.090Z,2.78
2023-01-09T01:15:26.998Z,2.60
2023-01-09T01:17:58.930Z,2.75
2023-01-09T01:20:30.853Z,2.71
2023-01-09T01:23:02.737Z,2.82
2023-01-09T01:25:37.661Z,2.73
2023-01-09T01:28:10.782Z,2.89
2023-01-09T01:30:43.738Z,2.74
2023-01-09T01:33:15.671Z,2.58
2023-01-09T01:35:47.536Z,2.82
2023-01-09T01:38:19.419Z,2.73
2023-01-09T01:40:55.057Z,2.45
2023-01-09T01:43:26.964Z,2.43
2023-01-09T01:45:59.067Z,2.62
2023-01-09T01:48:32.324Z,2.78
2023-01-09T01:51:06.990Z,2.63
2023-01-09T01:53:45.726Z,2.74
2023-01-09T01:56:26.060Z,2.72
2023-01-09T01:59:01.411Z,2.61
2023-01-09T02:01:34.466Z,2.61
2023-01-09T02:04:06.512Z,2.57
2023-01-09T02:06:39.311Z,2.51
2023-01-09T02:09:13.695Z,2.55
2023-01-09T02:11:47.047Z,2.66
2023-01-09T02:14:22.223Z,2.66
2023-01-09T02:17:26.621Z,2.63
2023-01-09T02:20:20.260Z,2.65
2023-01-09T02:23:13.855Z,2.56
2023-01-09T02:26:21.215Z,2.66
2023-01-09T02:28:58.810Z,2.46
2023-01-09T02:31:57.768Z,2.55
2023-01-09T02:34:41.624Z,2.63
2023-01-09T02:37:41.736Z,2.58
2023-01-09T02:40:21.730Z,2.53
2023-01-09T02:42:55.891Z,2.44
2023-01-09T02:45:27.830Z,2.39
2023-01-09T02:47:59.804Z,2.38
2023-01-09T02:50:51.110Z,2.51
2023-01-09T02:53:51.988Z,2.39
2023-01-09T02:56:45.470Z,2.45
2023-01-09T02:59:54.017Z,2.41
2023-01-09T03:02:42.477Z,2.38
2023-01-09T03:05:34.710Z,2.57
2023-01-09T03:08:16.164Z,2.56
2023-01-09T03:11:09.269Z,2.45
2023-01-09T03:13:50.937Z,2.37
2023-01-09T03:16:33.224Z,2.44
2023-01-09T03:19:10.927Z,2.61
2023-01-09T03:21:45.171Z,2.54
2023-01-09T03:24:17.139Z,2.53
2023-01-09T03:26:49.336Z,2.48
2023-01-09T03:29:22.118Z,2.51
2023-01-09T03:31:54.090Z,2.55
2023-01-09T03:34:25.972Z,2.56
2023-01-09T03:36:57.875Z,2.71
2023-01-09T03:39:29.801Z,2.55
2023-01-09T03:42:01.786Z,2.67
2023-01-09T03:44:33.651Z,2.54
2023-01-09T03:47:05.541Z,2.42
2023-01-09T03:49:37.406Z,2.22
2023-01-09T03:52:09.356Z,2.38
2023-01-09T03:54:41.323Z,2.37
2023-01-09T03:57:13.868Z,2.41
2023-01-09T03:59:45.819Z,2.20
2023-01-09T04:02:18.497Z,2.27
2023-01-09T04:04:50.426Z,2.12
2023-01-09T04:07:22.361Z,2.48
2023-01-09T04:09:54.367Z,2.43
2023-01-09T04:12:26.313Z,2.56
2023-01-09T04:14:58.478Z,2.67
2023-01-09T04:17:30.486Z,2.67
2023-01-09T04:20:02.539Z,2.83
2023-01-09T04:22:34.521Z,2.93
2023-01-09T04:25:06.939Z,2.85
2023-01-09T04:27:39.138Z,2.99
2023-01-09T04:30:11.669Z,2.93
2023-01-09T04:32:43.710Z,3.02
2023-01-09T04:35:15.649Z,2.93
2023-01-09T04:37:47.885Z,3.19
2023-01-09T04:40:20.097Z,3.10
2023-01-09T04:42:52.189Z,3.21
2023-01-09T04:45:24.137Z,2.92
2023-01-09T04:47:56.089Z,3.27
2023-01-09T04:50:28.043Z,3.15
2023-01-09T04:53:00.032Z,3.23
2023-01-09T04:55:32.117Z,3.28
2023-01-09T04:58:04.085Z,3.23
2023-01-09T05:00:36.101Z,3.21
2023-01-09T05:03:07.972Z,3.39
2023-01-09T05:05:39.797Z,3.24
2023-01-09T05:08:11.747Z,3.37
2023-01-09T05:10:43.689Z,3.42
2023-01-09T05:13:15.666Z,3.42
2023-01-09T05:15:47.607Z,3.38
2023-01-09T05:18:19.684Z,3.42
2023-01-09T05:20:51.711Z,3.37
2023-01-09T05:23:23.836Z,3.47
2023-01-09T05:25:55.791Z,3.39
2023-01-09T05:28:27.716Z,3.33
2023-01-09T05:30:59.713Z,3.30
2023-01-09T05:33:31.684Z,3.37
2023-01-09T05:36:03.605Z,3.44
2023-01-09T05:38:35.613Z,3.44
2023-01-09T05:41:07.941Z,3.34
2023-01-09T05:43:39.867Z,3.17
2023-01-09T05:46:11.873Z,3.14
2023-01-09T05:48:44.813Z,3.20
2023-01-09T05:51:16.707Z,3.05
2023-01-09T05:53:48.918Z,3.20
2023-01-09T05:56:20.789Z,2.87
2023-01-09T05:58:52.723Z,3.03
2023-01-09T06:01:24.671Z,3.11
2023-01-09T06:03:56.620Z,3.07
2023-01-09T06:06:29.277Z,3.00
2023-01-09T06:09:01.283Z,2.97
2023-01-09T06:11:36.154Z,2.98
2023-01-09T06:14:11.107Z,3.01
2023-01-09T06:16:43.066Z,2.76
2023-01-09T06:19:15.245Z,2.61
2023-01-09T06:21:47.338Z,2.84
2023-01-09T06:24:19.445Z,3.03
2023-01-09T06:26:51.359Z,2.91
2023-01-09T06:29:23.904Z,3.05
2023-01-09T06:31:55.891Z,3.01
2023-01-09T06:34:27.887Z,2.99
2023-01-09T06:37:00.005Z,2.77
2023-01-09T06:39:32.008Z,2.83
2023-01-09T06:42:04.160Z,2.98
2023-01-09T06:44:37.138Z,2.94
2023-01-09T06:47:09.198Z,2.80
2023-01-09T06:49:41.148Z,2.86
2023-01-09T06:52:13.094Z,2.72
2023-01-09T06:54:45.025Z,2.72
2023-01-09T06:57:16.973Z,2.81
2023-01-09T06:59:48.941Z,2.74
2023-01-09T07:02:22.462Z,2.81
2023-01-09T07:04:54.437Z,2.71
2023-01-09T07:07:26.465Z,2.73
2023-01-09T07:09:58.427Z,2.83
2023-01-09T07:12:33.350Z,2.83
2023-01-09T07:15:05.902Z,2.69
2023-01-09T07:17:37.851Z,2.75
2023-01-09T07:20:10.582Z,2.75
2023-01-09T07:22:42.521Z,2.84
2023-01-09T07:25:14.557Z,2.78
2023-01-09T07:27:46.558Z,2.77
2023-01-09T07:30:18.631Z,2.72
2023-01-09T07:32:50.487Z,2.73
2023-01-09T07:35:22.341Z,2.70
2023-01-09T07:37:54.235Z,2.69
2023-01-09T07:40:27.338Z,2.72
2023-01-09T07:42:59.188Z,2.77
2023-01-09T07:45:31.115Z,2.79
2023-01-09T07:48:02.942Z,2.64
2023-01-09T07:50:35.001Z,2.78
2023-01-09T07:53:06.938Z,2.77
2023-01-09T07:55:39.263Z,2.96
2023-01-09T07:58:11.246Z,3.01
2023-01-09T08:00:43.181Z,3.01
2023-01-09T08:03:15.162Z,3.06
2023-01-09T08:05:47.106Z,2.97
2023-01-09T08:08:19.078Z,3.03
2023-01-09T08:10:51.427Z,3.23
2023-01-09T08:13:23.440Z,3.19
2023-01-09T08:15:55.467Z,3.20
2023-01-09T08:18:27.560Z,3.10
2023-01-09T08:20:59.626Z,3.33
2023-01-09T08:23:31.590Z,3.40
2023-01-09T08:26:04.556Z,3.37
2023-01-09T08:28:36.705Z,3.29
2023-01-09T08:31:08.959Z,3.23
2023-01-09T08:33:40.987Z,3.39
2023-01-09T08:36:13.003Z,3.26
2023-01-09T08:38:44.877Z,3.40
2023-01-09T08:41:35.791Z,3.25
2023-01-09T08:44:26.061Z,3.48
2023-01-09T08:47:07.126Z,3.51
2023-01-09T08:49:39.815Z,3.47
2023-01-09T08:52:12.591Z,3.47
2023-01-09T08:54:44.533Z,3.52
2023-01-09T08:57:16.626Z,3.57
2023-01-09T08:59:48.899Z,3.31
2023-01-09T09:02:20.908Z,3.66
2023-01-09T09:04:53.736Z,3.50
2023-01-09T09:07:28.690Z,3.66
2023-01-09T09:10:00.617Z,3.66
2023-01-09T09:12:32.494Z,3.66
2023-01-09T09:15:13.691Z,3.65
2023-01-09T09:17:45.983Z,3.82
2023-01-09T09:20:17.986Z,3.90
2023-01-09T09:22:50.604Z,4.06
2023-01-09T09:25:23.116Z,4.08
2023-01-09T09:27:56.698Z,3.98
2023-01-09T09:30:28.823Z,4.08
2023-01-09T09:33:03.358Z,4.17
2023-01-09T09:35:35.571Z,4.11
2023-01-09T09:38:07.526Z,4.22
2023-01-09T09:41:39.661Z,4.40
2023-01-09T09:44:53.430Z,4.34
2023-01-09T09:47:56.475Z,4.15
2023-01-09T09:50:46.635Z,4.41
2023-01-09T09:53:31.309Z,4.26
2023-01-09T09:56:05.487Z,4.36
2023-01-09T09:58:41.131Z,4.39
2023-01-09T10:01:19.462Z,4.32
2023-01-09T10:03:56.074Z,4.27
2023-01-09T10:06:50.488Z,4.30
2023-01-09T10:09:48.042Z,4.37
2023-01-09T10:12:19.936Z,4.42
2023-01-09T10:14:51.908Z,4.00
2023-01-09T10:17:55.140Z,4.37
2023-01-09T10:20:49.457Z,4.25
2023-01-09T10:23:26.803Z,4.30
2023-01-09T10:26:10.503Z,4.27
2023-01-09T10:29:20.369Z,4.31
2023-01-09T10:31:58.627Z,4.37
2023-01-09T10:34:48.934Z,4.39
2023-01-09T10:37:36.719Z,4.33
2023-01-09T10:40:26.102Z,4.35
2023-01-09T10:43:09.970Z,4.12
2023-01-09T10:45:52.990Z,4.42
2023-01-09T10:48:32.614Z,4.37
2023-01-09T10:51:19.822Z,4.43
2023-01-09T10:53:54.711Z,4.64
2023-01-09T10:56:30.970Z,4.64
2023-01-09T10:59:03.206Z,4.52
2023-01-09T11:01:39.711Z,4.39
2023-01-09T11:04:34.647Z,4.53
2023-01-09T11:07:18.767Z,4.44
2023-01-09T11:09:58.542Z,4.48
2023-01-09T11:12:32.922Z,4.63
2023-01-09T11:15:16.959Z,4.65
2023-01-09T11:17:51.546Z,4.56
2023-01-09T11:20:23.509Z,4.77
2023-01-09T11:22:58.210Z,4.79
2023-01-09T11:25:30.172Z,4.72
2023-01-09T11:28:02.102Z,4.89
2023-01-09T11:30:38.187Z,4.77
2023-01-09T11:33:16.309Z,4.75
2023-01-09T11:35:58.228Z,4.81
2023-01-09T11:38:33.665Z,4.83
2023-01-09T11:41:07.094Z,4.76
2023-01-09T11:43:40.358Z,4.68
2023-01-09T11:46:41.904Z,4.85
2023-01-09T11:49:22.952Z,4.96
2023-01-09T11:52:06.109Z,5.01
2023-01-09T11:54:43.471Z,4.90
2023-01-09T11:57:16.061Z,5.00
2023-01-09T11:59:48.067Z,5.07
2023-01-09T12:02:41.563Z,5.14
2023-01-09T12:05:47.320Z,5.16
2023-01-09T12:08:29.126Z,5.17
2023-01-09T12:11:25.597Z,5.14
2023-01-09T12:14:24.716Z,5.21
2023-01-09T12:17:17.961Z,5.22
2023-01-09T12:20:14.357Z,5.17
2023-01-09T12:23:08.015Z,5.19
2023-01-09T12:26:04.854Z,5.19
2023-01-09T12:28:56.492Z,5.22
2023-01-09T12:31:50.174Z,5.24
2023-01-09T12:34:32.668Z,5.15
2023-01-09T12:37:18.404Z,5.26
2023-01-09T12:40:22.214Z,5.24
2023-01-09T12:43:12.873Z,5.36
2023-01-09T12:45:53.808Z,5.37
2023-01-09T12:48:59.781Z,5.32
2023-01-09T12:51:35.744Z,5.37
2023-01-09T12:54:13.432Z,5.35
2023-01-09T12:57:03.396Z,5.39
2023-01-09T12:59:57.454Z,5.35
2023-01-09T13:02:39.458Z,5.42
2023-01-09T13:05:18.738Z,5.29
2023-01-09T13:08:29.737Z,5.45
2023-01-09T13:11:19.285Z,5.47
2023-01-09T13:14:14.706Z,5.41
2023-01-09T13:16:53.884Z,5.51
2023-01-09T13:19:34.149Z,5.46
2023-01-09T13:22:07.955Z,5.44
2023-01-09T13:24:58.531Z,5.53
2023-01-09T13:27:39.406Z,5.52
2023-01-09T13:30:11.263Z,5.62
2023-01-09T13:33:12.420Z,5.54
2023-01-09T13:35:55.722Z,5.59
2023-01-09T13:38:31.010Z,5.48
2023-01-09T13:41:34.311Z,5.51
2023-01-09T13:44:08.093Z,5.59
2023-01-09T13:46:43.823Z,5.54
2023-01-09T13:50:09.567Z,5.39
2023-01-09T13:52:43.336Z,5.36
2023-01-09T13:55:15.269Z,5.48
2023-01-09T13:58:05.093Z,5.52
2023-01-09T14:00:37.328Z,5.53
2023-01-09T14:03:39.211Z,5.54
2023-01-09T14:06:14.537Z,5.50
2023-01-09T14:08:48.284Z,5.03
2023-01-09T14:11:22.814Z,5.48
2023-01-09T14:14:02.098Z,5.43
2023-01-09T14:16:36.436Z,5.44
2023-01-09T14:19:17.701Z,5.48
2023-01-09T14:21:54.842Z,5.38
2023-01-09T14:24:44.403Z,5.48
2023-01-09T14:27:54.120Z,5.52
2023-01-09T14:30:26.051Z,5.50
2023-01-09T14:33:19.515Z,5.54
2023-01-09T14:36:15.815Z,5.49
2023-01-09T14:39:09.932Z,5.66
2023-01-09T14:42:06.707Z,5.52
2023-01-09T14:44:47.753Z,5.62
2023-01-09T14:47:31.853Z,5.61
2023-01-09T14:50:11.908Z,5.67
2023-01-09T14:52:52.325Z,5.67
2023-01-09T14:55:34.872Z,5.66
2023-01-09T14:58:18.704Z,5.56
2023-01-09T15:01:17.249Z,5.64
2023-01-09T15:03:52.721Z,5.64
2023-01-09T15:06:30.220Z,5.56
2023-01-09T15:09:35.238Z,5.69
2023-01-09T15:12:11.177Z,5.65
2023-01-09T15:14:46.216Z,5.68
2023-01-09T15:17:24.433Z,5.72
2023-01-09T15:19:57.936Z,5.66
2023-01-09T15:22:34.968Z,5.73
2023-01-09T15:25:39.858Z,5.75
2023-01-09T15:28:40.589Z,5.73
2023-01-09T15:31:18.361Z,5.74
2023-01-09T15:33:53.850Z,5.74
2023-01-09T15:36:28.578Z,5.81
2023-01-09T15:39:00.800Z,5.81
2023-01-09T15:41:51.495Z,5.67
2023-01-09T15:44:26.731Z,5.69
2023-01-09T15:47:00.764Z,5.77
2023-01-09T15:49:34.189Z,5.76
2023-01-09T15:52:12.205Z,5.73
2023-01-09T15:54:49.516Z,5.82
2023-01-09T15:57:27.768Z,5.80
2023-01-09T16:00:33.788Z,5.79
2023-01-09T16:03:17.742Z,5.81
2023-01-09T16:05:51.782Z,5.85
2023-01-09T16:08:34.693Z,5.81
2023-01-09T16:11:22.701Z,5.73
2023-01-09T16:13:57.362Z,5.78
2023-01-09T16:16:34.066Z,5.85
2023-01-09T16:19:06.547Z,5.73
2023-01-09T16:21:38.794Z,5.86
2023-01-09T16:24:16.975Z,5.90
2023-01-09T16:26:52.963Z,5.89
2023-01-09T16:29:36.146Z,5.82
2023-01-09T16:32:19.879Z,5.85
2023-01-09T16:34:57.497Z,5.94
2023-01-09T16:37:29.895Z,5.83
2023-01-09T16:40:23.220Z,5.97
2023-01-09T16:43:03.763Z,5.97
2023-01-09T16:45:40.215Z,5.98
2023-01-09T16:48:16.024Z,5.91
2023-01-09T16:50:48.057Z,5.86
2023-01-09T16:53:32.281Z,5.92
2023-01-09T16:56:04.645Z,6.03
2023-01-09T16:58:36.750Z,6.02
2023-01-09T17:01:10.743Z,6.06
2023-01-09T17:03:44.197Z,6.06
2023-01-09T17:06:19.398Z,6.10
2023-01-09T17:08:51.966Z,5.97
2023-01-09T17:11:30.594Z,5.73
2023-01-09T17:14:02.790Z,5.96
2023-01-09T17:16:38.762Z,6.10
2023-01-09T17:19:18.069Z,6.04
2023-01-09T17:21:50.119Z,6.10
2023-01-09T17:24:40.927Z,6.07
2023-01-09T17:27:31.173Z,6.08
2023-01-09T17:30:17.629Z,6.04
2023-01-09T17:32:50.121Z,6.01
2023-01-09T17:35:21.989Z,6.03
2023-01-09T17:37:54.003Z,6.02
2023-01-09T17:40:27.753Z,5.79
2023-01-09T17:42:59.726Z,6.00
2023-01-09T17:45:31.677Z,6.04
2023-01-09T17:48:03.845Z,5.95
2023-01-09T17:50:36.750Z,6.03
2023-01-09T17:53:08.750Z,6.04
2023-01-09T17:55:42.177Z,6.05
2023-01-09T17:58:40.477Z,6.17
2023-01-09T18:01:14.883Z,6.17
2023-01-09T18:03:49.232Z,6.09
2023-01-09T18:06:22.689Z,6.17
2023-01-09T18:08:57.288Z,6.10
2023-01-09T18:11:30.313Z,6.11
2023-01-09T18:14:02.265Z,5.83
2023-01-09T18:16:34.823Z,6.07
2023-01-09T18:19:07.055Z,6.14
2023-01-09T18:21:38.970Z,5.82
2023-01-09T18:24:10.927Z,6.19
2023-01-09T18:26:43.079Z,6.05
2023-01-09T18:29:15.571Z,6.11
2023-01-09T18:31:48.452Z,6.07
2023-01-09T18:34:20.552Z,6.04
2023-01-09T18:36:52.499Z,6.17
2023-01-09T18:39:24.620Z,6.07
2023-01-09T18:41:56.609Z,6.02
2023-01-09T18:44:28.631Z,6.12
2023-01-09T18:47:02.006Z,6.15
2023-01-09T18:49:34.057Z,6.01
2023-01-09T18:52:07.631Z,6.04
2023-01-09T18:54:39.932Z,6.12
2023-01-09T18:57:12.423Z,6.22
2023-01-09T18:59:44.376Z,6.16
2023-01-09T19:02:20.431Z,6.19
2023-01-09T19:04:53.096Z,6.14
2023-01-09T19:07:25.066Z,6.03
2023-01-09T19:09:56.975Z,5.99
2023-01-09T19:12:28.897Z,5.99
2023-01-09T19:15:00.880Z,5.99
2023-01-09T19:17:33.721Z,6.05
2023-01-09T19:20:07.198Z,6.00
2023-01-09T19:22:39.331Z,5.95
2023-01-09T19:25:12.740Z,6.00
2023-01-09T19:27:44.678Z,6.07
2023-01-09T19:30:17.100Z,6.09
2023-01-09T19:32:49.105Z,6.13
2023-01-09T19:35:21.073Z,6.03
2023-01-09T19:37:53.017Z,6.11
2023-01-09T19:40:25.919Z,5.90
2023-01-09T19:42:58.405Z,6.06
2023-01-09T19:45:30.372Z,6.02
2023-01-09T19:48:02.379Z,5.92
2023-01-09T19:50:34.344Z,5.83
2023-01-09T19:53:06.312Z,5.86
2023-01-09T19:55:38.835Z,5.75
2023-01-09T19:58:11.436Z,5.77
2023-01-09T20:00:43.814Z,5.74
2023-01-09T20:03:15.795Z,5.72
2023-01-09T20:05:47.767Z,5.74
2023-01-09T20:08:19.760Z,5.39
2023-01-09T20:10:51.690Z,5.71
2023-01-09T20:13:23.728Z,5.88
2023-01-09T20:15:58.767Z,5.93
2023-01-09T20:18:32.657Z,5.93
2023-01-09T20:21:05.023Z,5.93
2023-01-09T20:23:37.915Z,5.99
2023-01-09T20:26:09.860Z,5.93
2023-01-09T20:28:41.811Z,5.52
2023-01-09T20:31:16.778Z,5.67
2023-01-09T20:33:51.120Z,6.03
2023-01-09T20:36:27.845Z,6.07
2023-01-09T20:39:02.119Z,6.02
2023-01-09T20:41:34.542Z,5.98
2023-01-09T20:44:09.977Z,5.80
2023-01-09T20:46:45.164Z,6.02
2023-01-09T20:49:20.911Z,6.06
2023-01-09T20:51:53.349Z,5.97
2023-01-09T20:54:25.568Z,6.00
2023-01-09T20:56:57.582Z,5.94
2023-01-09T20:59:29.726Z,5.93
2023-01-09T21:02:01.653Z,5.89
2023-01-09T21:04:33.735Z,5.93
2023-01-09T21:07:05.658Z,6.04
2023-01-09T21:09:37.615Z,5.96
2023-01-09T21:12:28.925Z,5.74
2023-01-09T21:15:11.985Z,6.04
2023-01-09T21:17:44.548Z,6.11
2023-01-09T21:20:16.569Z,6.06
2023-01-09T21:22:49.659Z,6.15
2023-01-09T21:25:21.536Z,6.11
2023-01-09T21:27:53.530Z,6.01
2023-01-09T21:30:25.566Z,6.06
2023-01-09T21:32:57.555Z,5.95
2023-01-09T21:35:29.525Z,6.04
2023-01-09T21:38:02.502Z,5.79
2023-01-09T21:40:34.486Z,5.98
2023-01-09T21:43:25.047Z,5.86
2023-01-09T21:46:19.826Z,6.00
2023-01-09T21:48:51.826Z,6.03
2023-01-09T21:51:24.012Z,5.88
2023-01-09T21:53:56.009Z,5.57
2023-01-09T21:56:28.171Z,5.91
2023-01-09T21:59:00.401Z,5.80
2023-01-09T22:01:32.420Z,5.74
2023-01-09T22:04:04.557Z,5.87
2023-01-09T22:06:36.667Z,5.96
2023-01-09T22:09:09.275Z,5.90
2023-01-09T22:11:42.198Z,6.01
2023-01-09T22:14:17.232Z,5.83
2023-01-09T22:16:49.177Z,5.71
2023-01-09T22:19:21.392Z,5.86
2023-01-09T22:21:53.376Z,5.77
2023-01-09T22:24:25.289Z,5.70
2023-01-09T22:26:57.234Z,5.60
2023-01-09T22:29:29.373Z,5.77
2023-01-09T22:32:01.614Z,5.74
2023-01-09T22:34:33.835Z,5.67
2023-01-09T22:37:08.557Z,5.68
2023-01-09T22:39:40.507Z,5.72
2023-01-09T22:42:12.457Z,5.75
2023-01-09T22:44:44.401Z,5.80
2023-01-09T22:47:18.456Z,5.40
2023-01-09T22:49:53.060Z,5.42
2023-01-09T22:52:25.426Z,5.24
2023-01-09T22:54:57.390Z,5.61
2023-01-09T22:57:29.495Z,4.88
2023-01-09T23:00:01.503Z,5.41
2023-01-09T23:02:33.613Z,5.63
2023-01-09T23:05:06.199Z,5.42
2023-01-09T23:07:38.150Z,5.62
2023-01-09T23:10:10.933Z,5.42
2023-01-09T23:12:47.979Z,5.53
2023-01-09T23:15:19.971Z,5.65
2023-01-09T23:17:52.134Z,5.59
2023-01-09T23:20:24.267Z,5.51
2023-01-09T23:22:58.305Z,5.66
2023-01-09T23:25:31.413Z,5.77
2023-01-09T23:28:21.533Z,5.07
2023-01-09T23:31:01.368Z,5.12
2023-01-09T23:33:46.420Z,5.26
2023-01-09T23:36:22.818Z,5.40
2023-01-09T23:38:57.509Z,5.48
2023-01-09T23:41:49.774Z,5.03
2023-01-09T23:44:21.792Z,5.40
2023-01-09T23:46:54.208Z,5.73
2023-01-09T23:49:29.235Z,5.68
2023-01-09T23:52:08.936Z,5.38
2023-01-09T23:54:44.042Z,5.42
2023-01-09T23:57:16.011Z,5.21
2023-01-09T23:59:49.369Z,5.33
